Time;durP1;ratioP1;P1;durP2;ratioP2;P2;SDS_P1;SDS_P2;PMS_P1;PMS_P2;Temp;Humidity;BMP_temperature;BMP_pressure;BME280_temperature;BME280_humidity;BME280_pressure;Samples;Min_cycle;Max_cycle;Signal;HPM_P1;HPM_P2
2023/01/26 00:00:30;;;;;;;31.90;14.20;;;0.60;99.90;;;;;;5209315;28;20210;-50
2023/01/26 00:03:01;;;;;;;25.73;12.23;;;0.60;99.90;;;;;;5224247;28;20713;-52
2023/01/26 00:05:31;;;;;;;32.33;14.43;;;0.60;99.90;;;;;;5212376;28;20435;-51
2023/01/26 00:08:02;;;;;;;31.00;13.40;;;0.60;99.90;;;;;;5205921;28;20183;-51
2023/01/26 00:10:37;;;;;;;33.83;14.97;;;0.50;99.90;;;;;;5211308;28;20624;-51
2023/01/26 00:13:09;;;;;;;24.03;13.00;;;0.60;99.90;;;;;;5206297;28;20250;-51
2023/01/26 00:15:41;;;;;;;35.83;15.30;;;0.60;99.90;;;;;;5226577;28;20832;-51
2023/01/26 00:18:13;;;;;;;32.10;13.63;;;0.60;99.90;;;;;;5225132;28;20479;-51
2023/01/26 00:20:44;;;;;;;29.90;14.10;;;0.50;99.90;;;;;;5209997;28;20991;-48
2023/01/26 00:23:15;;;;;;;28.50;13.53;;;0.60;99.90;;;;;;5220613;28;20445;-50
2023/01/26 00:25:46;;;;;;;22.53;13.47;;;0.70;99.90;;;;;;5199783;28;20176;-51
2023/01/26 00:28:16;;;;;;;28.60;14.30;;;0.50;99.90;;;;;;5222233;28;20179;-51
2023/01/26 00:30:47;;;;;;;28.43;12.50;;;0.50;99.90;;;;;;5227125;28;20217;-51
2023/01/26 00:33:18;;;;;;;30.30;14.40;;;0.50;99.90;;;;;;5222941;28;20191;-50
2023/01/26 00:35:53;;;;;;;29.00;13.67;;;0.50;99.90;;;;;;5221663;28;20428;-51
2023/01/26 00:38:24;;;;;;;27.47;14.03;;;0.60;99.90;;;;;;5222165;28;20202;-51
2023/01/26 00:40:55;;;;;;;25.37;13.30;;;0.60;99.90;;;;;;5206062;28;20482;-50
2023/01/26 00:43:25;;;;;;;28.80;14.13;;;0.50;99.90;;;;;;5226736;28;20231;-52
2023/01/26 00:45:56;;;;;;;30.67;15.07;;;0.60;99.90;;;;;;5224571;28;20662;-52
2023/01/26 00:48:27;;;;;;;23.73;13.67;;;0.50;99.90;;;;;;5210704;28;20654;-51
2023/01/26 00:50:58;;;;;;;30.63;13.70;;;0.50;99.90;;;;;;5215535;28;20215;-53
2023/01/26 00:53:29;;;;;;;27.13;13.97;;;0.50;99.90;;;;;;5221438;28;20679;-50
2023/01/26 00:55:59;;;;;;;27.40;13.63;;;0.50;99.90;;;;;;5201102;28;20295;-52
2023/01/26 00:58:30;;;;;;;31.27;14.47;;;0.50;99.90;;;;;;5208734;28;20175;-50
2023/01/26 01:01:01;;;;;;;30.83;15.00;;;0.50;99.90;;;;;;5225839;28;20713;-48
2023/01/26 01:03:31;;;;;;;29.63;14.00;;;0.50;99.90;;;;;;5212764;28;20231;-48
2023/01/26 01:06:02;;;;;;;30.40;14.77;;;0.60;99.90;;;;;;5221113;28;20190;-50
2023/01/26 01:08:33;;;;;;;31.97;15.67;;;0.60;99.90;;;;;;5209550;28;20190;-48
2023/01/26 01:11:07;;;;;;;31.10;14.37;;;0.70;99.90;;;;;;5226712;28;20210;-47
2023/01/26 01:13:38;;;;;;;31.47;14.50;;;0.70;99.90;;;;;;5210874;28;20187;-48
2023/01/26 01:16:12;;;;;;;45.07;16.90;;;0.70;99.90;;;;;;5206037;28;20488;-47
2023/01/26 01:18:43;;;;;;;37.60;15.90;;;0.60;99.90;;;;;;5226333;28;20526;-49
2023/01/26 01:21:16;;;;;;;39.30;16.07;;;0.60;99.90;;;;;;5205853;28;20997;-49
2023/01/26 01:23:47;;;;;;;39.80;15.73;;;0.60;99.90;;;;;;5215534;28;20187;-47
2023/01/26 01:26:17;;;;;;;40.23;16.90;;;0.50;99.90;;;;;;5227981;28;20444;-49
2023/01/26 01:28:52;;;;;;;33.77;16.67;;;0.40;99.90;;;;;;5220229;28;20201;-48
2023/01/26 01:31:23;;;;;;;32.77;16.53;;;0.40;99.90;;;;;;5206045;28;20197;-47
2023/01/26 01:33:57;;;;;;;33.10;15.57;;;0.40;99.90;;;;;;5208860;28;20417;-49
2023/01/26 01:36:30;;;;;;;37.27;17.30;;;0.40;99.90;;;;;;5213421;28;20466;-48
2023/01/26 01:39:00;;;;;;;36.07;16.80;;;0.40;99.90;;;;;;5209715;28;20459;-49
2023/01/26 01:41:31;;;;;;;37.97;16.60;;;0.40;99.90;;;;;;5227181;28;20473;-48
2023/01/26 01:44:28;;;;;;;40.27;17.73;;;0.40;99.90;;;;;;5207740;28;20178;-49
2023/01/26 01:47:04;;;;;;;31.10;15.23;;;0.40;99.90;;;;;;5205787;28;20193;-50
2023/01/26 01:49:44;;;;;;;36.60;16.87;;;0.40;99.90;;;;;;5205160;28;20453;-49
2023/01/26 01:52:26;;;;;;;34.50;16.23;;;0.50;99.90;;;;;;5207709;28;20444;-48
2023/01/26 01:55:06;;;;;;;33.80;17.23;;;0.50;99.90;;;;;;5227045;28;20427;-48
2023/01/26 01:57:52;;;;;;;41.63;17.60;;;0.40;99.90;;;;;;5208608;28;20510;-48
2023/01/26 02:00:23;;;;;;;32.83;15.60;;;0.60;99.90;;;;;;5230075;28;20449;-48
2023/01/26 02:03:13;;;;;;;38.67;16.60;;;0.60;99.90;;;;;;5226890;28;20426;-47
2023/01/26 02:06:05;;;;;;;40.43;18.20;;;0.60;99.90;;;;;;5223598;28;20479;-48
2023/01/26 02:08:37;;;;;;;40.17;18.33;;;0.60;99.90;;;;;;5220704;28;20432;-47
2023/01/26 02:11:13;;;;;;;28.23;14.83;;;0.50;99.90;;;;;;5203266;28;20900;-49
2023/01/26 02:13:47;;;;;;;39.97;18.87;;;0.50;99.90;;;;;;5199164;28;20457;-50
2023/01/26 02:16:19;;;;;;;39.83;16.40;;;0.60;99.90;;;;;;5227024;28;20987;-48
2023/01/26 02:18:50;;;;;;;42.37;17.33;;;0.50;99.90;;;;;;5211466;28;20429;-49
2023/01/26 02:21:22;;;;;;;35.73;17.03;;;0.50;99.90;;;;;;5207497;28;20443;-48
2023/01/26 02:24:08;;;;;;;32.07;15.93;;;0.50;99.90;;;;;;5213652;28;20190;-47
2023/01/26 02:26:39;;;;;;;33.30;17.10;;;0.50;99.90;;;;;;5218452;28;20457;-47
2023/01/26 02:29:10;;;;;;;34.40;15.70;;;0.60;99.90;;;;;;5207626;28;20828;-49
2023/01/26 02:31:42;;;;;;;32.63;15.50;;;0.60;99.90;;;;;;5210354;28;21301;-48
2023/01/26 02:34:13;;;;;;;33.33;15.80;;;0.60;99.90;;;;;;5192028;28;21051;-47
2023/01/26 02:36:44;;;;;;;33.03;14.87;;;0.60;99.90;;;;;;5225418;28;20547;-47
2023/01/26 02:39:54;;;;;;;37.07;16.67;;;0.60;99.90;;;;;;5194493;28;20461;-47
2023/01/26 02:42:37;;;;;;;35.03;15.00;;;0.70;99.90;;;;;;5223511;28;20219;-47
2023/01/26 02:45:12;;;;;;;33.80;15.17;;;0.60;99.90;;;;;;5210087;28;20437;-47
2023/01/26 02:47:44;;;;;;;37.17;14.90;;;0.60;99.90;;;;;;5213154;28;20437;-50
2023/01/26 02:50:15;;;;;;;34.00;15.37;;;0.60;99.90;;;;;;5205713;28;20574;-48
2023/01/26 02:52:46;;;;;;;43.90;15.50;;;0.60;99.90;;;;;;5206938;28;20425;-47
2023/01/26 02:55:24;;;;;;;39.60;16.40;;;0.60;99.90;;;;;;5224782;28;20450;-48
2023/01/26 02:57:58;;;;;;;39.73;16.07;;;0.60;99.90;;;;;;5208805;28;20216;-50
2023/01/26 03:00:33;;;;;;;34.93;15.80;;;0.60;99.90;;;;;;5211642;28;20456;-47
2023/01/26 03:03:12;;;;;;;49.47;17.60;;;0.60;99.90;;;;;;5225329;28;20429;-47
2023/01/26 03:05:43;;;;;;;32.83;15.87;;;0.50;99.90;;;;;;5224191;28;20439;-46
2023/01/26 03:08:14;;;;;;;31.37;15.10;;;0.50;99.90;;;;;;5220579;28;20443;-48
2023/01/26 03:10:46;;;;;;;37.40;15.23;;;0.50;99.90;;;;;;5212028;28;20214;-47
2023/01/26 03:13:17;;;;;;;38.27;17.63;;;0.50;99.90;;;;;;5211972;28;20464;-48
2023/01/26 03:15:54;;;;;;;35.70;15.67;;;0.50;99.90;;;;;;5225429;28;20424;-47
2023/01/26 03:29:50;;;;;;;32.00;14.77;;;0.40;99.90;;;;;;5233629;28;20482;-48
2023/01/26 03:32:21;;;;;;;32.27;15.17;;;0.40;99.90;;;;;;5227420;28;20427;-47
2023/01/26 03:34:52;;;;;;;39.60;15.57;;;0.50;99.90;;;;;;5212147;28;20218;-46
2023/01/26 03:37:22;;;;;;;33.97;15.70;;;0.40;99.90;;;;;;5209339;28;20469;-48
2023/01/26 03:56:48;;;;;;;38.60;14.43;;;0.40;99.90;;;;;;5226366;28;20995;-48
2023/01/26 03:59:36;;;;;;;21.47;12.97;;;0.40;99.90;;;;;;5207992;28;20469;-46
2023/01/26 04:10:37;;;;;;;26.70;12.13;;;0.50;99.90;;;;;;5226235;28;20482;-52
2023/01/26 04:21:36;;;;;;;27.70;13.20;;;0.50;99.90;;;;;;5229649;28;20879;-48
2023/01/26 04:24:12;;;;;;;26.00;13.67;;;0.50;99.90;;;;;;5211828;28;20528;-48
2023/01/26 04:26:43;;;;;;;27.50;14.27;;;0.50;99.90;;;;;;5229554;28;20429;-47
2023/01/26 04:29:15;;;;;;;27.33;12.53;;;0.50;99.90;;;;;;5230429;28;20460;-47
2023/01/26 04:31:46;;;;;;;27.43;14.70;;;0.50;99.90;;;;;;5224918;28;20175;-47
2023/01/26 04:34:16;;;;;;;29.70;14.63;;;0.40;99.90;;;;;;5229381;28;20498;-47
2023/01/26 04:36:47;;;;;;;25.53;14.40;;;0.40;99.90;;;;;;5209539;28;20249;-48
2023/01/26 04:39:18;;;;;;;27.30;14.93;;;0.50;99.90;;;;;;5201890;28;20210;-47
2023/01/26 04:41:48;;;;;;;26.57;14.63;;;0.50;99.90;;;;;;5204155;28;20237;-47
2023/01/26 04:44:19;;;;;;;26.47;15.37;;;0.50;99.90;;;;;;5211597;28;20185;-48
2023/01/26 04:46:50;;;;;;;26.77;13.60;;;0.50;99.90;;;;;;5228002;28;20177;-49
2023/01/26 04:49:21;;;;;;;25.03;14.70;;;0.50;99.90;;;;;;5210602;28;20228;-47
2023/01/26 04:51:51;;;;;;;21.87;13.97;;;0.50;99.90;;;;;;5199095;28;20267;-52
2023/01/26 04:54:22;;;;;;;25.83;14.40;;;0.60;99.90;;;;;;5221920;28;20190;-51
2023/01/26 04:56:53;;;;;;;26.10;14.20;;;0.50;99.90;;;;;;5209810;28;20553;-50
2023/01/26 04:59:24;;;;;;;28.93;14.43;;;0.50;99.90;;;;;;5226945;28;20213;-51
2023/01/26 05:01:55;;;;;;;22.10;13.20;;;0.50;99.90;;;;;;5231305;28;20180;-50
2023/01/26 05:04:26;;;;;;;22.17;13.13;;;0.50;99.90;;;;;;5208839;28;20653;-52
2023/01/26 05:06:57;;;;;;;30.93;14.70;;;0.60;99.90;;;;;;5208621;28;20439;-52
2023/01/26 05:09:27;;;;;;;29.73;14.33;;;0.60;99.90;;;;;;5224662;28;20574;-49
2023/01/26 05:12:32;;;;;;;24.13;13.20;;;0.50;99.90;;;;;;5202898;28;20451;-52
2023/01/26 05:14:49;;;;;;;34.73;14.47;;;0.60;99.90;;;;;;5224571;28;20215;-51
2023/01/26 05:17:19;;;;;;;22.20;12.50;;;0.50;99.90;;;;;;5223957;28;20882;-52
2023/01/26 05:19:50;;;;;;;34.10;13.67;;;0.50;99.90;;;;;;5223752;28;20202;-52
2023/01/26 05:22:21;;;;;;;39.37;13.83;;;0.40;99.90;;;;;;5208304;28;20275;-49
2023/01/26 05:24:51;;;;;;;22.20;11.47;;;0.50;99.90;;;;;;5200632;28;20179;-51
2023/01/26 05:27:22;;;;;;;35.17;14.47;;;0.50;99.90;;;;;;5214795;28;20190;-48
2023/01/26 05:29:57;;;;;;;28.70;13.97;;;0.40;99.90;;;;;;5200778;28;20234;-52
2023/01/26 05:32:29;;;;;;;35.70;13.40;;;0.40;99.90;;;;;;5198652;28;20608;-51
2023/01/26 05:35:00;;;;;;;30.53;14.30;;;0.40;99.90;;;;;;5204466;28;20440;-50
2023/01/26 05:37:32;;;;;;;33.63;16.27;;;0.50;99.90;;;;;;5218274;28;20461;-52
2023/01/26 05:40:03;;;;;;;29.37;13.70;;;0.50;99.90;;;;;;5234656;28;21761;-51
2023/01/26 05:42:33;;;;;;;26.33;13.27;;;0.50;99.90;;;;;;5190429;28;20529;-51
2023/01/26 05:45:05;;;;;;;30.30;14.50;;;0.60;99.90;;;;;;5207911;28;20522;-51
2023/01/26 05:47:35;;;;;;;29.10;13.10;;;0.50;99.90;;;;;;5216328;28;20190;-53
2023/01/26 05:50:06;;;;;;;26.50;13.83;;;0.50;99.90;;;;;;5215744;28;20521;-51
2023/01/26 05:52:38;;;;;;;29.03;12.60;;;0.50;99.90;;;;;;5206587;28;20234;-52
2023/01/26 05:55:09;;;;;;;29.80;14.30;;;0.50;99.90;;;;;;5207972;28;20923;-52
2023/01/26 05:57:40;;;;;;;26.87;15.60;;;0.50;99.90;;;;;;5212507;28;20454;-51
2023/01/26 06:00:12;;;;;;;32.00;12.83;;;0.50;99.90;;;;;;5223543;28;20465;-51
2023/01/26 06:02:43;;;;;;;22.70;12.40;;;0.50;99.90;;;;;;5199469;28;20444;-51
2023/01/26 06:05:14;;;;;;;20.70;12.33;;;0.60;99.90;;;;;;5202153;28;20429;-50
2023/01/26 06:07:45;;;;;;;28.50;13.40;;;0.50;99.90;;;;;;5219707;28;20445;-51
2023/01/26 06:10:16;;;;;;;29.47;13.30;;;0.50;99.90;;;;;;5202929;28;20473;-49
2023/01/26 06:12:48;;;;;;;23.23;12.13;;;0.50;99.90;;;;;;5219216;28;20185;-50
2023/01/26 06:15:19;;;;;;;25.63;12.40;;;0.40;99.90;;;;;;5221878;28;20963;-52
2023/01/26 06:17:50;;;;;;;24.43;11.40;;;0.40;99.90;;;;;;5223961;28;20491;-50
2023/01/26 06:20:21;;;;;;;19.97;11.60;;;0.40;99.90;;;;;;5199537;28;20470;-48
2023/01/26 06:22:52;;;;;;;19.80;11.53;;;0.40;99.90;;;;;;5214380;28;20490;-49
2023/01/26 06:25:24;;;;;;;21.90;12.63;;;0.40;99.90;;;;;;5206205;28;20806;-50
2023/01/26 06:27:58;;;;;;;26.63;12.50;;;0.40;99.90;;;;;;5208606;28;20520;-51
2023/01/26 06:30:29;;;;;;;32.37;13.63;;;0.40;99.90;;;;;;5222761;28;20453;-51
2023/01/26 06:33:00;;;;;;;26.33;11.50;;;0.50;99.90;;;;;;5189214;28;20965;-52
2023/01/26 06:35:32;;;;;;;23.90;12.53;;;0.50;99.90;;;;;;5207981;28;20468;-51
2023/01/26 06:38:02;;;;;;;23.80;11.47;;;0.40;99.90;;;;;;5219062;28;20470;-51
2023/01/26 06:40:33;;;;;;;31.60;13.50;;;0.40;99.90;;;;;;5223804;28;20448;-49
2023/01/26 06:43:05;;;;;;;22.27;10.53;;;0.40;99.90;;;;;;5203793;28;20194;-51
2023/01/26 06:45:36;;;;;;;26.80;12.43;;;0.50;99.90;;;;;;5215213;28;20600;-51
2023/01/26 06:48:07;;;;;;;19.20;10.43;;;0.40;99.90;;;;;;5208693;28;20440;-50
2023/01/26 06:50:39;;;;;;;29.33;13.07;;;0.40;99.90;;;;;;5208264;28;20226;-50
2023/01/26 06:53:38;;;;;;;25.70;11.23;;;0.40;99.90;;;;;;5211829;28;20968;-52
2023/01/26 06:56:09;;;;;;;29.03;12.93;;;0.30;99.90;;;;;;5214586;28;20187;-50
2023/01/26 06:58:40;;;;;;;24.77;12.27;;;0.30;99.90;;;;;;5205831;28;20440;-49
2023/01/26 07:01:19;;;;;;;22.23;12.60;;;0.40;99.90;;;;;;5240196;28;20210;-50
2023/01/26 07:03:53;;;;;;;22.20;11.27;;;0.50;99.90;;;;;;5229829;28;20178;-51
2023/01/26 07:06:24;;;;;;;23.30;10.97;;;0.50;99.90;;;;;;5212580;28;20437;-50
2023/01/26 07:08:55;;;;;;;22.70;12.23;;;0.40;99.90;;;;;;5229692;28;20508;-50
2023/01/26 07:11:28;;;;;;;21.83;11.00;;;0.40;99.90;;;;;;5209248;28;20587;-49
2023/01/26 07:13:59;;;;;;;21.53;11.40;;;0.30;99.90;;;;;;5230913;28;20188;-49
2023/01/26 07:16:30;;;;;;;24.90;11.33;;;0.30;99.90;;;;;;5201249;28;20460;-49
2023/01/26 07:19:01;;;;;;;16.23;8.57;;;0.20;99.90;;;;;;5230892;28;20189;-50
2023/01/26 07:21:31;;;;;;;23.97;10.50;;;0.20;99.90;;;;;;5224170;28;20674;-49
2023/01/26 07:24:03;;;;;;;22.07;9.70;;;0.30;99.90;;;;;;5224605;28;20187;-50
2023/01/26 07:26:34;;;;;;;20.57;12.43;;;0.30;99.90;;;;;;5222221;28;20275;-50
2023/01/26 07:29:05;;;;;;;21.57;10.90;;;0.20;99.90;;;;;;5227381;28;20533;-50
2023/01/26 07:31:36;;;;;;;17.97;9.07;;;0.30;99.90;;;;;;5223140;28;20528;-49
2023/01/26 07:34:09;;;;;;;20.70;9.93;;;0.20;99.90;;;;;;5227795;28;20437;-50
2023/01/26 07:36:41;;;;;;;23.30;11.80;;;0.20;99.90;;;;;;5229984;28;20983;-50
2023/01/26 07:39:11;;;;;;;23.07;10.27;;;0.30;99.90;;;;;;5228860;28;20484;-51
2023/01/26 07:41:44;;;;;;;20.40;10.30;;;0.40;99.90;;;;;;5222794;28;20464;-50
2023/01/26 07:44:15;;;;;;;22.40;10.00;;;0.40;99.90;;;;;;5227061;28;20183;-51
2023/01/26 07:46:46;;;;;;;18.57;9.30;;;0.50;99.90;;;;;;5229158;28;20440;-49
2023/01/26 07:49:18;;;;;;;19.90;9.43;;;0.40;99.90;;;;;;5229154;28;20466;-50
2023/01/26 07:51:51;;;;;;;16.93;9.10;;;0.50;99.90;;;;;;5216607;28;20449;-49
2023/01/26 07:54:22;;;;;;;18.10;9.20;;;0.50;99.90;;;;;;5210579;28;20445;-50
2023/01/26 07:56:53;;;;;;;18.63;9.90;;;0.50;99.90;;;;;;5208776;28;20472;-50
2023/01/26 07:59:24;;;;;;;19.03;10.20;;;0.50;99.90;;;;;;5204902;28;20210;-49
2023/01/26 08:01:55;;;;;;;15.27;8.40;;;0.60;99.90;;;;;;5223195;28;20905;-50
2023/01/26 08:04:25;;;;;;;18.00;9.37;;;0.40;99.90;;;;;;5224398;28;20684;-49
2023/01/26 08:06:56;;;;;;;19.60;9.63;;;0.40;99.90;;;;;;5224220;28;20183;-49
2023/01/26 08:09:27;;;;;;;16.13;8.43;;;0.40;99.90;;;;;;5219749;28;20210;-49
2023/01/26 08:11:58;;;;;;;16.93;8.70;;;0.40;99.90;;;;;;5219627;28;20888;-49
2023/01/26 08:14:29;;;;;;;14.63;8.47;;;0.60;99.90;;;;;;5209343;28;20668;-50
2023/01/26 08:16:59;;;;;;;23.63;8.60;;;0.60;99.90;;;;;;5211304;28;20203;-50
2023/01/26 08:19:30;;;;;;;14.70;8.70;;;0.60;99.90;;;;;;5215685;28;20292;-51
2023/01/26 08:22:01;;;;;;;17.23;8.63;;;0.40;99.90;;;;;;5225740;28;20189;-51
2023/01/26 08:24:32;;;;;;;13.73;8.47;;;0.30;99.90;;;;;;5214051;28;20437;-50
2023/01/26 08:27:03;;;;;;;13.33;8.97;;;0.30;99.90;;;;;;5226432;28;20203;-49
2023/01/26 08:29:33;;;;;;;17.50;9.47;;;0.20;99.90;;;;;;5224847;28;20202;-51
2023/01/26 08:32:04;;;;;;;15.33;9.80;;;0.20;99.90;;;;;;5225187;28;20668;-50
2023/01/26 08:34:35;;;;;;;14.00;8.90;;;0.20;99.90;;;;;;5226073;28;20192;-49
2023/01/26 08:37:06;;;;;;;14.97;8.53;;;0.20;99.90;;;;;;5224566;28;20545;-49
2023/01/26 08:39:37;;;;;;;15.67;9.40;;;0.10;99.90;;;;;;5224715;28;20263;-50
2023/01/26 08:42:08;;;;;;;15.27;8.20;;;0.20;99.90;;;;;;5225501;28;20461;-50
2023/01/26 08:44:38;;;;;;;17.10;8.83;;;0.30;99.90;;;;;;5223496;28;20190;-50
2023/01/26 08:47:09;;;;;;;17.03;9.13;;;0.20;99.90;;;;;;5223684;28;20190;-51
2023/01/26 08:49:40;;;;;;;13.17;7.90;;;0.30;99.90;;;;;;5205880;28;20213;-49
2023/01/26 08:52:10;;;;;;;16.27;9.37;;;0.20;99.90;;;;;;5224646;28;20190;-49
2023/01/26 08:54:41;;;;;;;14.70;8.97;;;0.20;99.90;;;;;;5221517;28;20268;-50
2023/01/26 08:57:12;;;;;;;16.93;8.90;;;0.20;99.90;;;;;;5207606;28;20301;-49
2023/01/26 08:59:43;;;;;;;20.47;8.80;;;0.20;99.90;;;;;;5215499;28;20213;-49
2023/01/26 09:02:13;;;;;;;14.27;9.40;;;0.20;99.90;;;;;;5211415;28;20207;-49
2023/01/26 09:04:44;;;;;;;16.90;8.97;;;0.20;99.90;;;;;;5216860;28;20461;-50
2023/01/26 09:07:15;;;;;;;13.40;7.70;;;0.30;99.90;;;;;;5207478;28;20198;-49
2023/01/26 09:09:46;;;;;;;18.47;8.13;;;0.30;99.90;;;;;;5221473;28;20210;-50
2023/01/26 09:12:16;;;;;;;12.67;7.73;;;0.30;99.90;;;;;;5215050;28;20247;-50
2023/01/26 09:14:47;;;;;;;9.53;7.30;;;0.20;99.90;;;;;;5220252;28;20186;-49
2023/01/26 09:17:18;;;;;;;11.23;7.20;;;0.30;99.90;;;;;;5223022;28;20622;-50
2023/01/26 09:19:48;;;;;;;17.30;8.57;;;0.20;99.90;;;;;;5223903;28;20694;-49
2023/01/26 09:22:19;;;;;;;15.17;8.73;;;0.30;99.90;;;;;;5221823;28;21328;-49
2023/01/26 09:24:50;;;;;;;10.80;7.00;;;0.30;99.90;;;;;;5214292;28;20730;-49
2023/01/26 09:27:20;;;;;;;10.23;6.97;;;0.40;99.90;;;;;;5222898;28;20545;-51
2023/01/26 09:29:52;;;;;;;14.40;6.80;;;0.30;99.90;;;;;;5214695;28;20221;-50
2023/01/26 09:32:23;;;;;;;17.13;9.07;;;0.30;99.90;;;;;;5215940;28;20190;-50
2023/01/26 09:34:54;;;;;;;11.50;7.50;;;0.40;99.90;;;;;;5221111;28;20806;-51
2023/01/26 09:37:25;;;;;;;12.33;7.40;;;0.30;99.90;;;;;;5192181;28;20214;-49
2023/01/26 09:39:56;;;;;;;15.33;8.73;;;0.30;99.90;;;;;;5208495;28;20240;-51
2023/01/26 09:42:48;;;;;;;16.03;8.67;;;0.30;99.90;;;;;;5215261;28;20441;-49
2023/01/26 09:45:28;;;;;;;14.40;8.23;;;0.40;99.90;;;;;;5221049;28;20497;-50
2023/01/26 09:48:33;;;;;;;18.93;9.67;;;0.50;99.90;;;;;;5214113;28;20969;-48
2023/01/26 09:51:27;;;;;;;12.17;8.23;;;0.40;99.90;;;;;;5181353;28;20449;-50
2023/01/26 09:54:27;;;;;;;18.80;8.50;;;0.40;99.90;;;;;;5224906;28;20433;-49
2023/01/26 09:57:01;;;;;;;13.43;8.97;;;0.40;99.90;;;;;;5218572;28;20501;-53
2023/01/26 09:59:39;;;;;;;18.40;10.23;;;0.50;99.90;;;;;;5208452;28;20798;-49
2023/01/26 10:02:20;;;;;;;15.60;9.00;;;0.50;99.90;;;;;;5221860;28;20441;-51
2023/01/26 10:04:57;;;;;;;20.57;9.13;;;0.50;99.90;;;;;;5219609;28;20441;-49
2023/01/26 10:07:28;;;;;;;17.33;9.83;;;0.50;99.90;;;;;;5215975;28;20444;-50
2023/01/26 10:09:59;;;;;;;19.20;10.53;;;0.50;99.90;;;;;;5208504;28;20975;-48
2023/01/26 10:12:33;;;;;;;22.23;9.20;;;0.40;99.90;;;;;;5207288;28;20186;-49
2023/01/26 10:15:15;;;;;;;11.80;7.80;;;0.30;99.90;;;;;;5214510;28;20461;-52
2023/01/26 10:17:47;;;;;;;18.97;9.97;;;0.30;99.90;;;;;;5212626;28;20475;-50
2023/01/26 10:20:34;;;;;;;24.00;13.70;;;0.40;99.90;;;;;;5217532;28;20453;-52
2023/01/26 10:23:17;;;;;;;19.93;9.90;;;0.30;99.90;;;;;;5228479;28;20468;-46
2023/01/26 10:25:50;;;;;;;15.30;9.60;;;0.10;99.90;;;;;;5225433;28;20919;-49
2023/01/26 10:28:28;;;;;;;17.07;10.67;;;0.20;99.90;;;;;;5223411;28;20844;-48
2023/01/26 10:30:59;;;;;;;17.43;10.27;;;0.10;99.90;;;;;;5223762;28;20455;-50
2023/01/26 10:33:35;;;;;;;18.00;9.97;;;0.30;99.90;;;;;;5214170;28;20448;-48
2023/01/26 10:36:06;;;;;;;20.13;10.40;;;0.30;99.90;;;;;;5224615;28;20810;-48
2023/01/26 10:38:39;;;;;;;16.57;9.70;;;0.40;99.90;;;;;;5209054;28;20892;-49
2023/01/26 10:41:13;;;;;;;21.50;10.60;;;0.40;99.90;;;;;;5203170;28;20827;-48
2023/01/26 10:43:55;;;;;;;19.93;10.43;;;0.40;99.90;;;;;;5222172;28;20442;-47
2023/01/26 10:46:41;;;;;;;17.67;10.70;;;0.60;99.90;;;;;;5215308;28;20445;-48
2023/01/26 10:49:14;;;;;;;16.60;9.77;;;0.50;99.90;;;;;;5220296;28;20453;-48
2023/01/26 10:52:04;;;;;;;17.60;10.40;;;0.50;99.90;;;;;;5224423;28;20441;-50
2023/01/26 10:54:36;;;;;;;23.53;11.33;;;0.50;99.90;;;;;;5211824;28;20476;-47
2023/01/26 10:57:26;;;;;;;18.97;9.97;;;0.50;99.90;;;;;;5222117;28;20457;-50
2023/01/26 11:00:18;;;;;;;16.80;10.77;;;0.40;99.90;;;;;;5209947;28;21270;-53
2023/01/26 11:02:57;;;;;;;17.87;9.87;;;0.50;99.90;;;;;;5208166;28;20448;-48
2023/01/26 11:05:28;;;;;;;22.00;10.87;;;0.60;99.90;;;;;;5219893;28;20438;-49
2023/01/26 11:08:01;;;;;;;18.87;9.87;;;0.50;99.90;;;;;;5214227;28;20425;-50
2023/01/26 11:10:38;;;;;;;24.50;10.10;;;0.50;99.90;;;;;;5219844;28;20626;-48
2023/01/26 11:13:18;;;;;;;18.30;9.87;;;0.40;99.90;;;;;;5208576;28;20445;-49
2023/01/26 11:15:59;;;;;;;12.80;8.67;;;0.40;99.90;;;;;;5202419;28;20472;-50
2023/01/26 11:18:55;;;;;;;24.53;13.30;;;0.50;99.90;;;;;;5221793;28;20472;-52
2023/01/26 11:21:52;;;;;;;25.93;12.13;;;0.50;99.90;;;;;;5221419;28;20444;-48
2023/01/26 11:24:50;;;;;;;25.70;13.60;;;0.70;99.90;;;;;;5210739;28;20492;-48
2023/01/26 11:27:21;;;;;;;19.87;11.87;;;0.60;99.90;;;;;;5207343;28;20788;-48
2023/01/26 11:30:05;;;;;;;29.13;15.20;;;0.60;99.90;;;;;;5224224;28;20465;-48
2023/01/26 11:32:49;;;;;;;19.07;9.63;;;0.70;99.90;;;;;;5225327;28;20198;-49
2023/01/26 11:35:50;;;;;;;16.53;7.80;;;0.80;99.90;;;;;;5220805;28;20436;-49
2023/01/26 11:38:38;;;;;;;14.40;7.63;;;0.90;99.90;;;;;;5224157;28;20473;-50
2023/01/26 11:41:33;;;;;;;11.53;7.10;;;0.90;99.90;;;;;;5217018;28;20516;-49
2023/01/26 11:44:23;;;;;;;9.80;6.87;;;0.80;99.90;;;;;;5203585;28;20442;-50
2023/01/26 11:47:26;;;;;;;9.50;6.50;;;0.90;99.90;;;;;;5224354;28;20433;-48
2023/01/26 11:50:22;;;;;;;11.50;7.40;;;0.90;99.90;;;;;;5228825;28;20445;-48
2023/01/26 11:53:22;;;;;;;12.47;7.93;;;1.00;99.90;;;;;;5223113;28;20853;-49
2023/01/26 11:56:01;;;;;;;48.27;25.27;;;0.90;99.90;;;;;;5227777;28;20433;-50
2023/01/26 11:58:45;;;;;;;23.60;12.83;;;1.00;99.90;;;;;;5225323;28;20471;-51
2023/01/26 12:01:27;;;;;;;22.10;10.10;;;1.00;99.90;;;;;;5213466;28;20469;-49
2023/01/26 12:03:58;;;;;;;15.53;9.27;;;0.90;99.90;;;;;;5224286;28;20491;-49
2023/01/26 12:06:43;;;;;;;11.67;6.40;;;1.00;99.90;;;;;;5224389;28;20797;-52
2023/01/26 12:09:22;;;;;;;10.53;7.83;;;1.00;99.90;;;;;;5221808;28;21502;-50
2023/01/26 12:12:11;;;;;;;6.47;5.30;;;0.90;99.90;;;;;;5211110;28;20441;-49
2023/01/26 12:15:09;;;;;;;7.90;5.80;;;1.10;99.90;;;;;;5224582;28;20483;-48
2023/01/26 12:18:15;;;;;;;38.70;19.30;;;1.10;99.90;;;;;;5220765;28;20473;-50
2023/01/26 12:20:49;;;;;;;32.47;15.73;;;1.30;99.90;;;;;;5208904;28;20457;-49
2023/01/26 12:23:22;;;;;;;9.40;6.90;;;1.40;99.90;;;;;;5215061;28;20537;-49
2023/01/26 12:26:00;;;;;;;10.70;6.90;;;1.40;99.90;;;;;;5219714;28;20520;-49
2023/01/26 12:28:38;;;;;;;7.13;6.40;;;1.40;99.90;;;;;;5221219;28;20433;-49
2023/01/26 12:31:18;;;;;;;6.50;5.77;;;1.40;99.90;;;;;;5218064;28;20550;-50
2023/01/26 12:33:53;;;;;;;9.40;6.30;;;1.30;99.90;;;;;;5224037;28;21094;-48
2023/01/26 12:36:45;;;;;;;10.77;6.87;;;1.40;99.90;;;;;;5224058;28;20467;-48
2023/01/26 12:39:40;;;;;;;11.53;5.87;;;1.40;99.90;;;;;;5226057;28;20536;-49
2023/01/26 12:42:30;;;;;;;8.97;6.27;;;1.20;99.90;;;;;;5222246;28;20448;-49
2023/01/26 12:45:01;;;;;;;6.83;5.87;;;1.20;99.90;;;;;;5218177;28;21091;-50
2023/01/26 12:48:12;;;;;;;7.73;6.30;;;1.10;99.90;;;;;;5220739;28;20453;-49
2023/01/26 12:50:51;;;;;;;8.07;5.90;;;1.20;99.90;;;;;;5225060;28;20486;-51
2023/01/26 12:53:30;;;;;;;10.37;7.50;;;1.10;99.90;;;;;;5208821;28;20487;-50
2023/01/26 12:56:04;;;;;;;28.13;13.47;;;1.10;99.90;;;;;;5194335;28;20445;-51
2023/01/26 12:58:41;;;;;;;28.40;14.17;;;1.10;99.90;;;;;;5211821;28;21022;-50
2023/01/26 13:01:15;;;;;;;11.43;7.30;;;1.00;99.90;;;;;;5219710;28;20484;-49
2023/01/26 13:03:58;;;;;;;10.90;6.83;;;1.10;99.90;;;;;;5218104;28;20442;-51
2023/01/26 13:06:29;;;;;;;6.67;6.00;;;1.00;99.90;;;;;;5220133;28;20441;-48
2023/01/26 13:09:16;;;;;;;10.13;6.17;;;1.10;99.90;;;;;;5228192;28;20494;-50
2023/01/26 13:11:54;;;;;;;24.07;12.40;;;1.10;99.90;;;;;;5223400;28;20602;-50
2023/01/26 13:14:33;;;;;;;31.77;14.73;;;1.10;99.90;;;;;;5222120;28;20779;-51
2023/01/26 13:17:16;;;;;;;12.50;8.20;;;1.10;99.90;;;;;;5220985;28;20467;-49
2023/01/26 13:19:46;;;;;;;13.47;7.97;;;1.00;99.90;;;;;;5212201;28;20810;-50
2023/01/26 13:22:17;;;;;;;12.80;8.60;;;1.10;99.90;;;;;;5222392;28;20430;-50
2023/01/26 13:25:11;;;;;;;10.57;7.60;;;1.10;99.90;;;;;;5218414;28;20175;-50
2023/01/26 13:27:55;;;;;;;19.07;10.53;;;1.00;99.90;;;;;;5214678;28;20992;-49
2023/01/26 13:30:31;;;;;;;26.70;11.70;;;1.00;99.90;;;;;;5211435;28;20472;-50
2023/01/26 13:33:21;;;;;;;30.67;14.07;;;1.10;99.90;;;;;;5222839;28;20432;-50
2023/01/26 13:35:54;;;;;;;50.70;22.03;;;1.00;99.90;;;;;;5220517;28;20436;-51
2023/01/26 13:38:34;;;;;;;31.63;17.03;;;1.10;99.90;;;;;;5224742;28;20460;-50
2023/01/26 13:41:19;;;;;;;12.17;8.70;;;1.00;99.90;;;;;;5218223;28;20482;-50
2023/01/26 13:44:16;;;;;;;17.60;9.40;;;0.80;99.90;;;;;;5224271;28;20429;-49
2023/01/26 13:46:56;;;;;;;17.57;10.47;;;0.70;99.90;;;;;;5220054;28;20449;-51
2023/01/26 13:49:40;;;;;;;12.97;8.93;;;0.60;99.90;;;;;;5208942;28;20457;-51
2023/01/26 13:52:24;;;;;;;13.30;8.27;;;0.50;99.90;;;;;;5220195;28;20436;-51
2023/01/26 13:55:00;;;;;;;12.33;8.73;;;0.30;99.90;;;;;;5221004;28;20430;-50
2023/01/26 13:57:31;;;;;;;12.63;8.90;;;0.40;99.90;;;;;;5214771;28;20467;-49
2023/01/26 14:00:02;;;;;;;11.80;8.43;;;0.40;99.90;;;;;;5209957;28;20881;-51
2023/01/26 14:02:34;;;;;;;15.03;8.27;;;0.50;99.90;;;;;;5220588;28;20645;-51
2023/01/26 14:05:05;;;;;;;15.10;8.90;;;0.50;99.90;;;;;;5215557;28;20436;-49
2023/01/26 14:07:42;;;;;;;13.67;8.93;;;0.40;99.90;;;;;;5218502;28;20806;-51